Terminal Aerodrome Forecast
Issued by NWS Boston, MA

Home | Current Version | Previous Version | Text Only | Print | Product List | Glossary On
Versions: 1 2 3 4 5 6 7 8 9 10 11 12 13 14 15 16 17 18 19 20 21
000
FTUS41 KBOX 302328
TAFPVD
TAF
KPVD 302328Z 3100/3124 23010KT P6SM BKN010 OVC110
     FM310200 22007KT 5SM BR BKN010
     FM310900 24005KT 3SM BR OVC060
     FM311200 25005KT P6SM BKN050
     FM311600 24007KT P6SM SCT250=

USA.gov is the U.S. government's official web portal to all federal, state and local government web resources and services.